sensor_id;sensor_type;location;lat;lon;timestamp;P1;durP1;ratioP1;P2;durP2;ratioP2
62179;SDS011;48172;53.374;10.722;2022-09-12T00:01:11;1.35;;;1.25;;
62179;SDS011;48172;53.374;10.722;2022-09-12T00:03:43;1.27;;;1.17;;
62179;SDS011;48172;53.374;10.722;2022-09-12T00:06:12;1.58;;;1.35;;
62179;SDS011;48172;53.374;10.722;2022-09-12T00:08:48;1.67;;;1.40;;
62179;SDS011;48172;53.374;10.722;2022-09-12T00:11:17;1.45;;;1.35;;
62179;SDS011;48172;53.374;10.722;2022-09-12T00:13:44;1.60;;;1.50;;
62179;SDS011;48172;53.374;10.722;2022-09-12T00:16:15;2.13;;;1.50;;
62179;SDS011;48172;53.374;10.722;2022-09-12T00:18:47;1.35;;;1.25;;
62179;SDS011;48172;53.374;10.722;2022-09-12T00:21:14;1.40;;;1.30;;
62179;SDS011;48172;53.374;10.722;2022-09-12T00:23:42;1.55;;;1.45;;
62179;SDS011;48172;53.374;10.722;2022-09-12T00:26:09;1.35;;;1.25;;
62179;SDS011;48172;53.374;10.722;2022-09-12T00:28:36;1.40;;;1.13;;
62179;SDS011;48172;53.374;10.722;2022-09-12T00:31:07;1.33;;;1.23;;
62179;SDS011;48172;53.374;10.722;2022-09-12T00:33:36;1.30;;;1.20;;
62179;SDS011;48172;53.374;10.722;2022-09-12T00:36:03;2.42;;;1.75;;
62179;SDS011;48172;53.374;10.722;2022-09-12T00:38:32;1.27;;;1.17;;
62179;SDS011;48172;53.374;10.722;2022-09-12T00:40:58;1.58;;;1.30;;
62179;SDS011;48172;53.374;10.722;2022-09-12T00:46:05;1.50;;;1.40;;
62179;SDS011;48172;53.374;10.722;2022-09-12T00:48:45;1.17;;;1.08;;
62179;SDS011;48172;53.374;10.722;2022-09-12T00:51:17;1.30;;;1.20;;
62179;SDS011;48172;53.374;10.722;2022-09-12T00:53:45;1.30;;;1.20;;
62179;SDS011;48172;53.374;10.722;2022-09-12T00:56:16;1.30;;;1.20;;
62179;SDS011;48172;53.374;10.722;2022-09-12T00:58:48;1.33;;;1.23;;
62179;SDS011;48172;53.374;10.722;2022-09-12T01:01:21;1.10;;;1.00;;
62179;SDS011;48172;53.374;10.722;2022-09-12T01:03:47;1.40;;;1.30;;
62179;SDS011;48172;53.374;10.722;2022-09-12T01:06:20;0.93;;;0.93;;
62179;SDS011;48172;53.374;10.722;2022-09-12T01:08:51;1.30;;;1.20;;
62179;SDS011;48172;53.374;10.722;2022-09-12T01:11:20;1.40;;;1.30;;
62179;SDS011;48172;53.374;10.722;2022-09-12T01:13:47;1.30;;;0.93;;
62179;SDS011;48172;53.374;10.722;2022-09-12T01:16:16;1.30;;;1.20;;
62179;SDS011;48172;53.374;10.722;2022-09-12T01:30:23;2.08;;;1.20;;
62179;SDS011;48172;53.374;10.722;2022-09-12T01:33:28;1.30;;;1.20;;
62179;SDS011;48172;53.374;10.722;2022-09-12T01:38:41;1.15;;;1.02;;
62179;SDS011;48172;53.374;10.722;2022-09-12T01:47:21;1.30;;;1.20;;
62179;SDS011;48172;53.374;10.722;2022-09-12T01:49:59;1.25;;;1.15;;
62179;SDS011;48172;53.374;10.722;2022-09-12T01:55:23;1.20;;;1.10;;
62179;SDS011;48172;53.374;10.722;2022-09-12T01:57:53;1.65;;;1.30;;
62179;SDS011;48172;53.374;10.722;2022-09-12T02:00:25;1.30;;;1.20;;
62179;SDS011;48172;53.374;10.722;2022-09-12T02:02:59;1.10;;;1.00;;
62179;SDS011;48172;53.374;10.722;2022-09-12T02:05:31;2.15;;;1.10;;
62179;SDS011;48172;53.374;10.722;2022-09-12T02:08:06;1.25;;;1.15;;
62179;SDS011;48172;53.374;10.722;2022-09-12T02:10:42;0.93;;;0.90;;
62179;SDS011;48172;53.374;10.722;2022-09-12T02:13:14;1.83;;;1.23;;
62179;SDS011;48172;53.374;10.722;2022-09-12T02:15:48;3.50;;;1.25;;
62179;SDS011;48172;53.374;10.722;2022-09-12T02:18:19;1.35;;;1.08;;
62179;SDS011;48172;53.374;10.722;2022-09-12T02:20:47;1.20;;;1.10;;
62179;SDS011;48172;53.374;10.722;2022-09-12T02:23:16;1.10;;;1.00;;
62179;SDS011;48172;53.374;10.722;2022-09-12T02:25:47;1.20;;;1.10;;
62179;SDS011;48172;53.374;10.722;2022-09-12T02:28:24;1.30;;;1.20;;
62179;SDS011;48172;53.374;10.722;2022-09-12T02:31:31;1.13;;;1.02;;
62179;SDS011;48172;53.374;10.722;2022-09-12T02:36:48;1.00;;;0.90;;
62179;SDS011;48172;53.374;10.722;2022-09-12T02:39:26;1.77;;;0.98;;
62179;SDS011;48172;53.374;10.722;2022-09-12T02:41:56;1.10;;;1.00;;
62179;SDS011;48172;53.374;10.722;2022-09-12T02:44:26;1.13;;;1.02;;
62179;SDS011;48172;53.374;10.722;2022-09-12T02:47:03;0.98;;;0.95;;
62179;SDS011;48172;53.374;10.722;2022-09-12T02:49:34;1.20;;;1.10;;
62179;SDS011;48172;53.374;10.722;2022-09-12T02:52:01;0.85;;;0.85;;
62179;SDS011;48172;53.374;10.722;2022-09-12T02:54:28;1.20;;;1.10;;
62179;SDS011;48172;53.374;10.722;2022-09-12T02:56:56;1.20;;;1.00;;
62179;SDS011;48172;53.374;10.722;2022-09-12T02:59:22;0.90;;;0.90;;
62179;SDS011;48172;53.374;10.722;2022-09-12T03:04:52;1.23;;;1.08;;
62179;SDS011;48172;53.374;10.722;2022-09-12T03:16:23;1.30;;;1.20;;
62179;SDS011;48172;53.374;10.722;2022-09-12T03:24:30;1.10;;;0.95;;
62179;SDS011;48172;53.374;10.722;2022-09-12T03:27:11;0.88;;;0.88;;
62179;SDS011;48172;53.374;10.722;2022-09-12T03:29:42;1.30;;;1.20;;
62179;SDS011;48172;53.374;10.722;2022-09-12T03:32:12;1.63;;;1.23;;
62179;SDS011;48172;53.374;10.722;2022-09-12T03:34:38;1.58;;;1.27;;
62179;SDS011;48172;53.374;10.722;2022-09-12T03:37:05;1.27;;;1.00;;
62179;SDS011;48172;53.374;10.722;2022-09-12T03:39:34;1.00;;;0.98;;
62179;SDS011;48172;53.374;10.722;2022-09-12T03:42:01;0.80;;;0.80;;
62179;SDS011;48172;53.374;10.722;2022-09-12T03:44:27;1.10;;;1.00;;
62179;SDS011;48172;53.374;10.722;2022-09-12T03:46:54;1.10;;;1.00;;
62179;SDS011;48172;53.374;10.722;2022-09-12T03:49:20;0.77;;;0.77;;
62179;SDS011;48172;53.374;10.722;2022-09-12T03:51:50;1.02;;;0.90;;
62179;SDS011;48172;53.374;10.722;2022-09-12T03:54:16;1.02;;;0.90;;
62179;SDS011;48172;53.374;10.722;2022-09-12T03:56:43;0.98;;;0.98;;
62179;SDS011;48172;53.374;10.722;2022-09-12T03:59:09;0.80;;;0.80;;
62179;SDS011;48172;53.374;10.722;2022-09-12T04:01:35;0.90;;;0.90;;
62179;SDS011;48172;53.374;10.722;2022-09-12T04:04:03;1.10;;;1.00;;
62179;SDS011;48172;53.374;10.722;2022-09-12T04:06:30;0.80;;;0.77;;
62179;SDS011;48172;53.374;10.722;2022-09-12T04:08:56;1.10;;;0.90;;
62179;SDS011;48172;53.374;10.722;2022-09-12T04:11:23;0.85;;;0.85;;
62179;SDS011;48172;53.374;10.722;2022-09-12T04:13:50;0.80;;;0.80;;
62179;SDS011;48172;53.374;10.722;2022-09-12T04:16:17;1.02;;;0.93;;
62179;SDS011;48172;53.374;10.722;2022-09-12T04:18:44;0.80;;;0.80;;
62179;SDS011;48172;53.374;10.722;2022-09-12T04:21:15;0.90;;;0.90;;
62179;SDS011;48172;53.374;10.722;2022-09-12T04:23:44;1.10;;;1.00;;
62179;SDS011;48172;53.374;10.722;2022-09-12T04:26:11;0.70;;;0.70;;
62179;SDS011;48172;53.374;10.722;2022-09-12T04:28:39;1.27;;;1.00;;
62179;SDS011;48172;53.374;10.722;2022-09-12T04:31:14;0.80;;;0.80;;
62179;SDS011;48172;53.374;10.722;2022-09-12T04:33:43;1.05;;;0.95;;
62179;SDS011;48172;53.374;10.722;2022-09-12T04:36:11;1.00;;;1.00;;
62179;SDS011;48172;53.374;10.722;2022-09-12T04:38:42;1.05;;;1.05;;
62179;SDS011;48172;53.374;10.722;2022-09-12T04:41:10;1.00;;;1.00;;
62179;SDS011;48172;53.374;10.722;2022-09-12T04:43:45;0.75;;;0.75;;
62179;SDS011;48172;53.374;10.722;2022-09-12T04:46:13;0.70;;;0.70;;
62179;SDS011;48172;53.374;10.722;2022-09-12T04:48:41;0.90;;;0.90;;
62179;SDS011;48172;53.374;10.722;2022-09-12T04:51:09;1.05;;;0.95;;
62179;SDS011;48172;53.374;10.722;2022-09-12T04:53:39;1.02;;;0.90;;
62179;SDS011;48172;53.374;10.722;2022-09-12T04:56:06;0.95;;;0.90;;
62179;SDS011;48172;53.374;10.722;2022-09-12T04:58:35;0.90;;;0.90;;
62179;SDS011;48172;53.374;10.722;2022-09-12T05:01:03;1.70;;;1.10;;
62179;SDS011;48172;53.374;10.722;2022-09-12T05:03:43;0.90;;;0.90;;
62179;SDS011;48172;53.374;10.722;2022-09-12T05:06:12;1.10;;;1.00;;
62179;SDS011;48172;53.374;10.722;2022-09-12T05:08:44;1.20;;;1.10;;
62179;SDS011;48172;53.374;10.722;2022-09-12T05:11:12;1.73;;;1.35;;
62179;SDS011;48172;53.374;10.722;2022-09-12T05:13:40;1.13;;;1.00;;
62179;SDS011;48172;53.374;10.722;2022-09-12T05:16:09;1.05;;;1.00;;
62179;SDS011;48172;53.374;10.722;2022-09-12T05:18:37;0.93;;;0.88;;
62179;SDS011;48172;53.374;10.722;2022-09-12T05:21:04;0.75;;;0.75;;
62179;SDS011;48172;53.374;10.722;2022-09-12T05:23:33;0.70;;;0.70;;
62179;SDS011;48172;53.374;10.722;2022-09-12T05:26:00;1.05;;;0.95;;
62179;SDS011;48172;53.374;10.722;2022-09-12T05:28:30;1.85;;;0.82;;
62179;SDS011;48172;53.374;10.722;2022-09-12T05:31:09;1.70;;;0.95;;
62179;SDS011;48172;53.374;10.722;2022-09-12T05:33:37;2.22;;;1.40;;
62179;SDS011;48172;53.374;10.722;2022-09-12T05:36:06;1.50;;;1.20;;
62179;SDS011;48172;53.374;10.722;2022-09-12T05:38:35;3.63;;;1.42;;
62179;SDS011;48172;53.374;10.722;2022-09-12T05:41:03;2.80;;;1.40;;
62179;SDS011;48172;53.374;10.722;2022-09-12T05:43:32;3.17;;;1.33;;
62179;SDS011;48172;53.374;10.722;2022-09-12T05:46:04;2.35;;;1.40;;
62179;SDS011;48172;53.374;10.722;2022-09-12T05:51:03;4.38;;;1.80;;
62179;SDS011;48172;53.374;10.722;2022-09-12T05:53:38;6.95;;;2.00;;
62179;SDS011;48172;53.374;10.722;2022-09-12T05:56:09;4.32;;;1.60;;
62179;SDS011;48172;53.374;10.722;2022-09-12T05:58:40;6.80;;;2.03;;
62179;SDS011;48172;53.374;10.722;2022-09-12T06:01:09;5.82;;;1.70;;
62179;SDS011;48172;53.374;10.722;2022-09-12T06:03:42;3.70;;;1.77;;
62179;SDS011;48172;53.374;10.722;2022-09-12T06:06:13;5.57;;;1.77;;
62179;SDS011;48172;53.374;10.722;2022-09-12T06:08:42;4.43;;;1.75;;
62179;SDS011;48172;53.374;10.722;2022-09-12T06:11:11;6.15;;;1.95;;
62179;SDS011;48172;53.374;10.722;2022-09-12T06:13:40;4.80;;;1.75;;
62179;SDS011;48172;53.374;10.722;2022-09-12T06:16:08;4.68;;;1.80;;
62179;SDS011;48172;53.374;10.722;2022-09-12T06:18:37;4.43;;;1.90;;
62179;SDS011;48172;53.374;10.722;2022-09-12T06:21:04;7.53;;;1.50;;
62179;SDS011;48172;53.374;10.722;2022-09-12T06:23:33;4.63;;;1.90;;
62179;SDS011;48172;53.374;10.722;2022-09-12T06:26:00;7.75;;;2.17;;
62179;SDS011;48172;53.374;10.722;2022-09-12T06:28:26;6.22;;;2.15;;
62179;SDS011;48172;53.374;10.722;2022-09-12T06:30:53;8.85;;;2.67;;
62179;SDS011;48172;53.374;10.722;2022-09-12T06:33:26;4.97;;;2.13;;
62179;SDS011;48172;53.374;10.722;2022-09-12T06:35:52;6.55;;;2.28;;
62179;SDS011;48172;53.374;10.722;2022-09-12T06:38:19;5.82;;;2.03;;
62179;SDS011;48172;53.374;10.722;2022-09-12T06:40:45;5.03;;;1.92;;
62179;SDS011;48172;53.374;10.722;2022-09-12T06:43:12;5.38;;;2.00;;
62179;SDS011;48172;53.374;10.722;2022-09-12T06:45:39;4.25;;;1.98;;
62179;SDS011;48172;53.374;10.722;2022-09-12T06:48:05;4.90;;;2.10;;
62179;SDS011;48172;53.374;10.722;2022-09-12T06:50:32;4.32;;;2.13;;
62179;SDS011;48172;53.374;10.722;2022-09-12T06:52:58;5.75;;;2.20;;
62179;SDS011;48172;53.374;10.722;2022-09-12T06:55:25;7.43;;;2.00;;
62179;SDS011;48172;53.374;10.722;2022-09-12T06:57:53;4.60;;;2.00;;
62179;SDS011;48172;53.374;10.722;2022-09-12T07:00:20;6.22;;;2.40;;
62179;SDS011;48172;53.374;10.722;2022-09-12T07:02:47;7.72;;;2.10;;
62179;SDS011;48172;53.374;10.722;2022-09-12T07:05:13;3.45;;;1.90;;
62179;SDS011;48172;53.374;10.722;2022-09-12T07:07:40;4.53;;;1.70;;
62179;SDS011;48172;53.374;10.722;2022-09-12T07:10:06;5.60;;;2.35;;
62179;SDS011;48172;53.374;10.722;2022-09-12T07:12:33;6.32;;;2.00;;
62179;SDS011;48172;53.374;10.722;2022-09-12T07:14:59;7.40;;;2.08;;
62179;SDS011;48172;53.374;10.722;2022-09-12T07:17:26;4.50;;;2.10;;
62179;SDS011;48172;53.374;10.722;2022-09-12T07:19:53;4.10;;;2.10;;
62179;SDS011;48172;53.374;10.722;2022-09-12T07:22:19;8.27;;;2.20;;
62179;SDS011;48172;53.374;10.722;2022-09-12T07:24:45;5.68;;;2.42;;
62179;SDS011;48172;53.374;10.722;2022-09-12T07:27:12;4.70;;;2.60;;
62179;SDS011;48172;53.374;10.722;2022-09-12T07:29:39;4.60;;;2.00;;
62179;SDS011;48172;53.374;10.722;2022-09-12T07:32:06;5.38;;;2.28;;
62179;SDS011;48172;53.374;10.722;2022-09-12T07:34:35;6.32;;;2.30;;
62179;SDS011;48172;53.374;10.722;2022-09-12T07:37:02;4.28;;;2.28;;
62179;SDS011;48172;53.374;10.722;2022-09-12T07:39:29;9.68;;;2.05;;
62179;SDS011;48172;53.374;10.722;2022-09-12T07:41:55;95.10;;;81.25;;
62179;SDS011;48172;53.374;10.722;2022-09-12T07:44:23;47.92;;;36.22;;
62179;SDS011;48172;53.374;10.722;2022-09-12T07:46:50;34.08;;;28.42;;
62179;SDS011;48172;53.374;10.722;2022-09-12T07:49:17;96.82;;;75.88;;
62179;SDS011;48172;53.374;10.722;2022-09-12T07:51:43;84.18;;;67.82;;
62179;SDS011;48172;53.374;10.722;2022-09-12T07:54:10;149.27;;;110.35;;
62179;SDS011;48172;53.374;10.722;2022-09-12T07:56:37;213.30;;;158.48;;
62179;SDS011;48172;53.374;10.722;2022-09-12T07:59:05;254.57;;;188.52;;
62179;SDS011;48172;53.374;10.722;2022-09-12T08:01:32;276.65;;;195.50;;
62179;SDS011;48172;53.374;10.722;2022-09-12T08:03:59;240.20;;;173.07;;
62179;SDS011;48172;53.374;10.722;2022-09-12T08:06:26;192.35;;;140.60;;
62179;SDS011;48172;53.374;10.722;2022-09-12T08:08:56;188.23;;;135.93;;
62179;SDS011;48172;53.374;10.722;2022-09-12T08:11:23;166.75;;;125.13;;
62179;SDS011;48172;53.374;10.722;2022-09-12T08:13:53;163.27;;;122.68;;
62179;SDS011;48172;53.374;10.722;2022-09-12T08:16:23;155.10;;;117.45;;
62179;SDS011;48172;53.374;10.722;2022-09-12T08:18:52;161.35;;;120.90;;
62179;SDS011;48172;53.374;10.722;2022-09-12T08:21:20;155.75;;;118.22;;
62179;SDS011;48172;53.374;10.722;2022-09-12T08:23:51;149.60;;;115.70;;
62179;SDS011;48172;53.374;10.722;2022-09-12T08:26:29;142.98;;;110.82;;
62179;SDS011;48172;53.374;10.722;2022-09-12T08:28:57;137.93;;;107.68;;
62179;SDS011;48172;53.374;10.722;2022-09-12T08:31:25;134.48;;;107.43;;
62179;SDS011;48172;53.374;10.722;2022-09-12T08:33:56;138.13;;;108.43;;
62179;SDS011;48172;53.374;10.722;2022-09-12T08:36:24;135.02;;;106.22;;
62179;SDS011;48172;53.374;10.722;2022-09-12T08:38:53;137.20;;;107.80;;
62179;SDS011;48172;53.374;10.722;2022-09-12T08:41:29;128.98;;;100.32;;
62179;SDS011;48172;53.374;10.722;2022-09-12T08:52:01;122.40;;;100.43;;
62179;SDS011;48172;53.374;10.722;2022-09-12T08:54:32;121.80;;;98.25;;
62179;SDS011;48172;53.374;10.722;2022-09-12T08:57:02;119.00;;;96.00;;
62179;SDS011;48172;53.374;10.722;2022-09-12T08:59:34;120.30;;;96.13;;
62179;SDS011;48172;53.374;10.722;2022-09-12T09:02:04;109.95;;;91.07;;
62179;SDS011;48172;53.374;10.722;2022-09-12T09:04:50;112.57;;;92.55;;
62179;SDS011;48172;53.374;10.722;2022-09-12T09:07:42;108.38;;;90.65;;
62179;SDS011;48172;53.374;10.722;2022-09-12T09:10:17;111.60;;;91.72;;
62179;SDS011;48172;53.374;10.722;2022-09-12T09:12:57;109.63;;;90.78;;
62179;SDS011;48172;53.374;10.722;2022-09-12T09:20:44;106.43;;;88.18;;
62179;SDS011;48172;53.374;10.722;2022-09-12T09:26:00;105.18;;;88.55;;
62179;SDS011;48172;53.374;10.722;2022-09-12T09:31:00;102.95;;;86.07;;
62179;SDS011;48172;53.374;10.722;2022-09-12T09:33:29;101.22;;;86.15;;
62179;SDS011;48172;53.374;10.722;2022-09-12T09:44:44;92.15;;;77.80;;
62179;SDS011;48172;53.374;10.722;2022-09-12T09:47:13;94.20;;;78.32;;
62179;SDS011;48172;53.374;10.722;2022-09-12T09:49:40;88.72;;;77.18;;
62179;SDS011;48172;53.374;10.722;2022-09-12T09:52:07;91.28;;;77.70;;
62179;SDS011;48172;53.374;10.722;2022-09-12T09:54:41;86.88;;;75.40;;
62179;SDS011;48172;53.374;10.722;2022-09-12T10:03:36;80.47;;;69.53;;
62179;SDS011;48172;53.374;10.722;2022-09-12T10:06:01;81.72;;;69.38;;
62179;SDS011;48172;53.374;10.722;2022-09-12T10:08:33;78.07;;;65.75;;
62179;SDS011;48172;53.374;10.722;2022-09-12T10:11:06;77.63;;;68.35;;
62179;SDS011;48172;53.374;10.722;2022-09-12T10:16:26;74.45;;;65.30;;
62179;SDS011;48172;53.374;10.722;2022-09-12T10:18:54;72.45;;;62.55;;
62179;SDS011;48172;53.374;10.722;2022-09-12T10:26:48;65.43;;;58.30;;
62179;SDS011;48172;53.374;10.722;2022-09-12T10:29:24;63.50;;;54.78;;
62179;SDS011;48172;53.374;10.722;2022-09-12T10:31:57;64.00;;;55.25;;
62179;SDS011;48172;53.374;10.722;2022-09-12T10:34:33;60.70;;;54.08;;
62179;SDS011;48172;53.374;10.722;2022-09-12T10:37:09;58.75;;;52.45;;
62179;SDS011;48172;53.374;10.722;2022-09-12T10:39:48;58.10;;;51.78;;
62179;SDS011;48172;53.374;10.722;2022-09-12T10:42:45;57.75;;;51.55;;
62179;SDS011;48172;53.374;10.722;2022-09-12T10:45:24;54.00;;;48.10;;
62179;SDS011;48172;53.374;10.722;2022-09-12T10:47:59;53.78;;;48.05;;
62179;SDS011;48172;53.374;10.722;2022-09-12T10:50:38;52.08;;;46.67;;
62179;SDS011;48172;53.374;10.722;2022-09-12T10:55:52;52.70;;;46.85;;
62179;SDS011;48172;53.374;10.722;2022-09-12T11:01:40;47.78;;;42.55;;
62179;SDS011;48172;53.374;10.722;2022-09-12T11:04:25;45.47;;;40.58;;
62179;SDS011;48172;53.374;10.722;2022-09-12T11:12:40;43.75;;;39.35;;
62179;SDS011;48172;53.374;10.722;2022-09-12T11:15:45;41.78;;;37.38;;
62179;SDS011;48172;53.374;10.722;2022-09-12T11:18:25;41.08;;;36.75;;
62179;SDS011;48172;53.374;10.722;2022-09-12T11:21:18;41.55;;;37.25;;
62179;SDS011;48172;53.374;10.722;2022-09-12T11:37:32;35.72;;;31.83;;
62179;SDS011;48172;53.374;10.722;2022-09-12T11:40:21;37.22;;;33.42;;
62179;SDS011;48172;53.374;10.722;2022-09-12T11:42:54;35.22;;;31.73;;
62179;SDS011;48172;53.374;10.722;2022-09-12T11:45:30;34.75;;;30.92;;
62179;SDS011;48172;53.374;10.722;2022-09-12T11:48:11;33.92;;;30.45;;
62179;SDS011;48172;53.374;10.722;2022-09-12T11:50:47;34.80;;;30.63;;
62179;SDS011;48172;53.374;10.722;2022-09-12T11:53:16;33.33;;;29.75;;
62179;SDS011;48172;53.374;10.722;2022-09-12T11:58:24;32.03;;;28.60;;
62179;SDS011;48172;53.374;10.722;2022-09-12T12:01:01;30.25;;;27.05;;
62179;SDS011;48172;53.374;10.722;2022-09-12T12:03:41;27.38;;;24.63;;
62179;SDS011;48172;53.374;10.722;2022-09-12T12:06:19;28.33;;;25.33;;
62179;SDS011;48172;53.374;10.722;2022-09-12T12:08:50;27.73;;;24.95;;
62179;SDS011;48172;53.374;10.722;2022-09-12T12:11:28;26.85;;;24.15;;
62179;SDS011;48172;53.374;10.722;2022-09-12T12:14:05;27.58;;;23.63;;
62179;SDS011;48172;53.374;10.722;2022-09-12T12:16:38;26.27;;;23.67;;
62179;SDS011;48172;53.374;10.722;2022-09-12T12:19:17;25.92;;;23.20;;
62179;SDS011;48172;53.374;10.722;2022-09-12T12:21:53;24.90;;;22.42;;
62179;SDS011;48172;53.374;10.722;2022-09-12T12:24:33;24.35;;;21.85;;
62179;SDS011;48172;53.374;10.722;2022-09-12T12:27:01;26.73;;;22.92;;
62179;SDS011;48172;53.374;10.722;2022-09-12T12:47:46;20.70;;;18.50;;
62179;SDS011;48172;53.374;10.722;2022-09-12T12:55:31;19.25;;;17.27;;
62179;SDS011;48172;53.374;10.722;2022-09-12T12:58:07;18.08;;;15.88;;
62179;SDS011;48172;53.374;10.722;2022-09-12T13:00:46;19.63;;;17.58;;
62179;SDS011;48172;53.374;10.722;2022-09-12T13:04:00;17.65;;;15.85;;
62179;SDS011;48172;53.374;10.722;2022-09-12T13:06:33;18.20;;;16.13;;
62179;SDS011;48172;53.374;10.722;2022-09-12T13:09:45;17.10;;;15.40;;
62179;SDS011;48172;53.374;10.722;2022-09-12T13:11:58;17.90;;;14.75;;
62179;SDS011;48172;53.374;10.722;2022-09-12T13:14:33;18.67;;;15.98;;
62179;SDS011;48172;53.374;10.722;2022-09-12T13:17:03;16.58;;;14.88;;
62179;SDS011;48172;53.374;10.722;2022-09-12T13:19:32;15.52;;;13.98;;
62179;SDS011;48172;53.374;10.722;2022-09-12T13:22:03;16.27;;;14.55;;
62179;SDS011;48172;53.374;10.722;2022-09-12T13:24:31;15.77;;;14.25;;
62179;SDS011;48172;53.374;10.722;2022-09-12T13:26:59;16.92;;;14.68;;
62179;SDS011;48172;53.374;10.722;2022-09-12T13:29:26;16.70;;;14.38;;
62179;SDS011;48172;53.374;10.722;2022-09-12T13:31:54;15.05;;;13.57;;
62179;SDS011;48172;53.374;10.722;2022-09-12T13:34:23;15.00;;;13.38;;
62179;SDS011;48172;53.374;10.722;2022-09-12T13:37:14;14.07;;;12.75;;
62179;SDS011;48172;53.374;10.722;2022-09-12T13:43:06;14.52;;;12.82;;
62179;SDS011;48172;53.374;10.722;2022-09-12T13:45:38;19.10;;;12.13;;
62179;SDS011;48172;53.374;10.722;2022-09-12T13:48:05;13.95;;;12.02;;
62179;SDS011;48172;53.374;10.722;2022-09-12T13:50:49;13.07;;;11.85;;
62179;SDS011;48172;53.374;10.722;2022-09-12T13:53:22;14.65;;;12.05;;
62179;SDS011;48172;53.374;10.722;2022-09-12T13:55:51;13.18;;;11.82;;
62179;SDS011;48172;53.374;10.722;2022-09-12T13:58:24;12.27;;;11.13;;
62179;SDS011;48172;53.374;10.722;2022-09-12T14:01:35;12.95;;;11.55;;
62179;SDS011;48172;53.374;10.722;2022-09-12T14:06:45;15.18;;;11.50;;
62179;SDS011;48172;53.374;10.722;2022-09-12T14:09:18;11.52;;;10.35;;
62179;SDS011;48172;53.374;10.722;2022-09-12T14:11:50;12.15;;;10.60;;
62179;SDS011;48172;53.374;10.722;2022-09-12T14:14:18;12.82;;;10.82;;
62179;SDS011;48172;53.374;10.722;2022-09-12T14:16:52;12.63;;;10.43;;
62179;SDS011;48172;53.374;10.722;2022-09-12T14:19:20;11.07;;;9.98;;
62179;SDS011;48172;53.374;10.722;2022-09-12T14:21:51;11.30;;;9.75;;
62179;SDS011;48172;53.374;10.722;2022-09-12T14:24:18;10.52;;;9.45;;
62179;SDS011;48172;53.374;10.722;2022-09-12T14:26:49;11.98;;;10.57;;
62179;SDS011;48172;53.374;10.722;2022-09-12T14:29:19;10.20;;;9.18;;
62179;SDS011;48172;53.374;10.722;2022-09-12T14:31:47;10.15;;;8.93;;
62179;SDS011;48172;53.374;10.722;2022-09-12T14:34:26;10.45;;;9.30;;
62179;SDS011;48172;53.374;10.722;2022-09-12T14:36:56;10.05;;;8.82;;
62179;SDS011;48172;53.374;10.722;2022-09-12T14:39:30;10.02;;;9.05;;
62179;SDS011;48172;53.374;10.722;2022-09-12T14:42:03;11.43;;;9.55;;
62179;SDS011;48172;53.374;10.722;2022-09-12T14:44:30;10.90;;;9.20;;
62179;SDS011;48172;53.374;10.722;2022-09-12T14:47:09;10.32;;;9.07;;
62179;SDS011;48172;53.374;10.722;2022-09-12T14:49:44;10.35;;;9.23;;
62179;SDS011;48172;53.374;10.722;2022-09-12T14:54:57;9.13;;;8.23;;
62179;SDS011;48172;53.374;10.722;2022-09-12T15:00:04;17.60;;;10.90;;
62179;SDS011;48172;53.374;10.722;2022-09-12T15:02:40;25.35;;;12.75;;
62179;SDS011;48172;53.374;10.722;2022-09-12T15:10:33;17.98;;;10.88;;
62179;SDS011;48172;53.374;10.722;2022-09-12T15:15:31;13.80;;;9.30;;
62179;SDS011;48172;53.374;10.722;2022-09-12T15:17:58;13.63;;;9.07;;
62179;SDS011;48172;53.374;10.722;2022-09-12T15:20:29;16.38;;;10.32;;
62179;SDS011;48172;53.374;10.722;2022-09-12T15:22:57;14.50;;;9.82;;
62179;SDS011;48172;53.374;10.722;2022-09-12T15:25:24;14.27;;;9.15;;
62179;SDS011;48172;53.374;10.722;2022-09-12T15:27:51;13.38;;;9.00;;
62179;SDS011;48172;53.374;10.722;2022-09-12T15:30:26;13.82;;;9.57;;
62179;SDS011;48172;53.374;10.722;2022-09-12T15:32:52;11.90;;;9.02;;
62179;SDS011;48172;53.374;10.722;2022-09-12T15:35:23;13.80;;;8.85;;
62179;SDS011;48172;53.374;10.722;2022-09-12T15:37:58;14.27;;;8.60;;
62179;SDS011;48172;53.374;10.722;2022-09-12T15:40:24;13.20;;;8.65;;
62179;SDS011;48172;53.374;10.722;2022-09-12T15:42:51;14.43;;;8.35;;
62179;SDS011;48172;53.374;10.722;2022-09-12T15:45:19;15.32;;;8.93;;
62179;SDS011;48172;53.374;10.722;2022-09-12T15:47:48;12.00;;;7.88;;
62179;SDS011;48172;53.374;10.722;2022-09-12T15:50:15;13.75;;;8.23;;
62179;SDS011;48172;53.374;10.722;2022-09-12T15:52:44;11.63;;;8.57;;
62179;SDS011;48172;53.374;10.722;2022-09-12T15:55:19;14.80;;;8.45;;
62179;SDS011;48172;53.374;10.722;2022-09-12T15:57:48;12.75;;;7.80;;
62179;SDS011;48172;53.374;10.722;2022-09-12T16:00:16;10.63;;;7.68;;
62179;SDS011;48172;53.374;10.722;2022-09-12T16:02:46;13.20;;;8.05;;
62179;SDS011;48172;53.374;10.722;2022-09-12T16:05:17;10.73;;;7.07;;
62179;SDS011;48172;53.374;10.722;2022-09-12T16:07:46;11.93;;;7.30;;
62179;SDS011;48172;53.374;10.722;2022-09-12T16:10:16;11.88;;;7.88;;
62179;SDS011;48172;53.374;10.722;2022-09-12T16:12:47;13.68;;;7.68;;
62179;SDS011;48172;53.374;10.722;2022-09-12T16:15:16;12.10;;;7.47;;
62179;SDS011;48172;53.374;10.722;2022-09-12T16:17:44;10.70;;;6.95;;
62179;SDS011;48172;53.374;10.722;2022-09-12T16:20:11;10.00;;;7.15;;
62179;SDS011;48172;53.374;10.722;2022-09-12T16:22:38;11.48;;;7.72;;
62179;SDS011;48172;53.374;10.722;2022-09-12T16:25:05;11.57;;;7.05;;
62179;SDS011;48172;53.374;10.722;2022-09-12T16:27:33;11.25;;;7.20;;
62179;SDS011;48172;53.374;10.722;2022-09-12T16:30:00;10.23;;;7.18;;
62179;SDS011;48172;53.374;10.722;2022-09-12T16:32:27;10.07;;;6.78;;
62179;SDS011;48172;53.374;10.722;2022-09-12T16:34:53;10.80;;;6.70;;
62179;SDS011;48172;53.374;10.722;2022-09-12T16:37:20;10.40;;;6.80;;
62179;SDS011;48172;53.374;10.722;2022-09-12T16:39:46;9.00;;;6.22;;
62179;SDS011;48172;53.374;10.722;2022-09-12T16:42:16;11.10;;;6.80;;
62179;SDS011;48172;53.374;10.722;2022-09-12T16:44:47;10.05;;;6.55;;
62179;SDS011;48172;53.374;10.722;2022-09-12T16:47:17;10.85;;;6.25;;
62179;SDS011;48172;53.374;10.722;2022-09-12T16:49:46;9.63;;;6.28;;
62179;SDS011;48172;53.374;10.722;2022-09-12T16:52:16;11.23;;;6.80;;
62179;SDS011;48172;53.374;10.722;2022-09-12T16:54:44;8.68;;;5.90;;
62179;SDS011;48172;53.374;10.722;2022-09-12T16:57:10;7.63;;;5.65;;
62179;SDS011;48172;53.374;10.722;2022-09-12T16:59:37;8.23;;;5.82;;
62179;SDS011;48172;53.374;10.722;2022-09-12T17:02:03;10.15;;;6.60;;
62179;SDS011;48172;53.374;10.722;2022-09-12T17:04:31;7.70;;;6.20;;
62179;SDS011;48172;53.374;10.722;2022-09-12T17:06:58;6.72;;;5.43;;
62179;SDS011;48172;53.374;10.722;2022-09-12T17:09:24;8.32;;;5.90;;
62179;SDS011;48172;53.374;10.722;2022-09-12T17:11:53;9.93;;;6.22;;
62179;SDS011;48172;53.374;10.722;2022-09-12T17:14:20;7.07;;;5.25;;
62179;SDS011;48172;53.374;10.722;2022-09-12T17:16:46;7.25;;;5.13;;
62179;SDS011;48172;53.374;10.722;2022-09-12T17:19:21;8.20;;;5.78;;
62179;SDS011;48172;53.374;10.722;2022-09-12T17:21:55;7.88;;;5.50;;
62179;SDS011;48172;53.374;10.722;2022-09-12T17:24:27;7.82;;;5.45;;